Howard, Kansas
Current Conditions -  °F | °C
As of 8:35 AM on Saturday 22 Nov 2014 (Local Time) from KIDP Reporting Station
Overcast Overcast  
Wind Chill: 54°   Ceiling: 700
Heat Index: 54°   Visibility: 7mi
Dew Point: 52°   Wind: 16mph
Humidity: 94%   Direction: 180°S
Pressure: 30"   Gusts: NA
Location:  37.47°N, 96.26°W
Report Text: KIDP 221435Z AUTO 18014KT 7SM OVC007 12/11 A3000 RMK AO2 LTG DSNT S AND SW
Loading
Personal Weather Stations






























Interactive Weather Map New forecast layout! Learn more

10-Day Weather Forecast

Advertisements
Track Severe Weather on mobile